Time;durP1;ratioP1;P1;durP2;ratioP2;P2;SDS_P1;SDS_P2;PMS_P1;PMS_P2;Temp;Humidity;BMP_temperature;BMP_pressure;BME280_temperature;BME280_humidity;BME280_pressure;Samples;Min_cycle;Max_cycle;Signal;HPM_P1;HPM_P2
2024/04/17 00:02:09;;;;;;;1.00;0.80;;;6.00;99.90;;;;;;5450951;26;20263;-74
2024/04/17 00:04:37;;;;;;;1.10;0.80;;;6.00;99.90;;;;;;5450848;26;20237;-74
2024/04/17 00:07:03;;;;;;;1.13;1.02;;;5.90;99.90;;;;;;5450864;26;20264;-74
2024/04/17 00:09:32;;;;;;;1.30;1.20;;;5.90;99.90;;;;;;5450257;26;20309;-74
2024/04/17 00:11:57;;;;;;;1.52;0.80;;;5.90;99.90;;;;;;5450865;26;20599;-74
2024/04/17 00:14:26;;;;;;;1.63;0.80;;;5.80;99.90;;;;;;5450645;26;20237;-75
2024/04/17 00:16:54;;;;;;;1.02;0.75;;;5.80;99.90;;;;;;5450400;26;20234;-75
2024/04/17 00:19:22;;;;;;;1.05;0.90;;;5.70;99.90;;;;;;5449885;26;20233;-74
2024/04/17 00:21:49;;;;;;;1.02;0.80;;;5.70;99.90;;;;;;5450576;26;20598;-75
2024/04/17 00:24:17;;;;;;;1.00;0.90;;;5.70;99.90;;;;;;5450317;26;20234;-75
2024/04/17 00:26:43;;;;;;;1.20;0.90;;;5.60;99.90;;;;;;5442592;26;20571;-74
2024/04/17 00:29:11;;;;;;;0.80;0.70;;;5.60;99.90;;;;;;5442794;26;20315;-75
2024/04/17 00:31:37;;;;;;;0.77;0.60;;;5.60;99.90;;;;;;5435342;26;20234;-75
2024/04/17 00:34:08;;;;;;;1.10;1.00;;;5.50;99.90;;;;;;5450346;26;20269;-75
2024/04/17 00:36:34;;;;;;;0.80;0.70;;;5.50;99.90;;;;;;5450149;26;20260;-75
2024/04/17 00:39:03;;;;;;;1.07;0.80;;;5.50;99.90;;;;;;5449729;26;20602;-75
2024/04/17 00:41:29;;;;;;;1.30;1.20;;;5.50;99.90;;;;;;5449506;26;20304;-75
2024/04/17 00:43:57;;;;;;;1.40;1.03;;;5.50;99.90;;;;;;5443598;26;20728;-75
2024/04/17 00:46:23;;;;;;;1.00;0.90;;;5.50;99.90;;;;;;5453489;26;20234;-75
2024/04/17 00:48:52;;;;;;;1.10;1.00;;;5.50;99.90;;;;;;5453154;26;20307;-74
2024/04/17 00:51:20;;;;;;;1.02;0.82;;;5.50;99.90;;;;;;5453476;26;20478;-75
2024/04/17 00:53:48;;;;;;;2.17;0.90;;;5.50;99.90;;;;;;5453531;26;20237;-75
2024/04/17 00:56:14;;;;;;;1.00;0.90;;;5.50;99.90;;;;;;5438447;26;20240;-74
2024/04/17 00:58:43;;;;;;;1.10;0.93;;;5.60;99.90;;;;;;5453188;26;20241;-75
2024/04/17 01:01:08;;;;;;;0.90;0.80;;;5.60;99.90;;;;;;5453185;26;20236;-75
2024/04/17 01:03:37;;;;;;;0.97;0.80;;;5.60;99.90;;;;;;5453359;26;20276;-75
2024/04/17 01:06:03;;;;;;;1.20;1.00;;;5.60;99.90;;;;;;5440432;26;20275;-75
2024/04/17 01:08:34;;;;;;;2.45;0.90;;;5.60;99.90;;;;;;5450932;26;20737;-75
2024/04/17 01:11:00;;;;;;;1.00;0.80;;;5.60;99.90;;;;;;5452839;26;20752;-74
2024/04/17 01:13:31;;;;;;;1.10;1.00;;;5.60;99.90;;;;;;5453308;26;20271;-74
2024/04/17 01:15:57;;;;;;;1.00;0.90;;;5.70;99.90;;;;;;5438265;26;20241;-74
2024/04/17 01:18:26;;;;;;;3.37;1.00;;;5.60;99.90;;;;;;5452890;26;20249;-75
2024/04/17 01:20:54;;;;;;;1.23;0.88;;;5.60;99.90;;;;;;5452425;26;20511;-74
2024/04/17 01:23:22;;;;;;;1.10;0.98;;;5.70;99.90;;;;;;5453080;26;20245;-74
2024/04/17 01:25:51;;;;;;;1.00;0.80;;;5.70;99.90;;;;;;5452971;26;20271;-74
2024/04/17 01:28:19;;;;;;;1.05;0.88;;;5.70;99.90;;;;;;5452708;26;20280;-75
2024/04/17 01:30:45;;;;;;;0.98;0.88;;;5.70;99.90;;;;;;5452551;26;20602;-75
2024/04/17 01:33:14;;;;;;;0.93;0.83;;;5.70;99.90;;;;;;5452919;26;20242;-74
2024/04/17 01:35:39;;;;;;;1.77;1.63;;;5.70;99.90;;;;;;5438820;26;20237;-75
2024/04/17 01:38:08;;;;;;;0.93;0.83;;;5.70;99.90;;;;;;5453305;26;20353;-74
2024/04/17 01:40:33;;;;;;;1.00;0.90;;;5.70;99.90;;;;;;5452273;26;20266;-75
2024/04/17 01:43:04;;;;;;;0.90;0.77;;;5.70;99.90;;;;;;5452877;26;20241;-74
2024/04/17 01:45:30;;;;;;;1.05;0.90;;;5.70;99.90;;;;;;5452930;26;20609;-75
2024/04/17 01:47:58;;;;;;;0.93;0.77;;;5.70;99.90;;;;;;5437856;26;20242;-74
2024/04/17 01:50:28;;;;;;;1.05;0.82;;;5.70;99.90;;;;;;5452178;26;20240;-74
2024/04/17 01:52:56;;;;;;;1.05;0.95;;;5.70;99.90;;;;;;5452372;26;20234;-75
2024/04/17 01:55:22;;;;;;;1.00;0.88;;;5.60;99.90;;;;;;5452426;26;20241;-74
2024/04/17 01:57:51;;;;;;;0.87;0.80;;;5.60;99.90;;;;;;5452419;26;20689;-74
2024/04/17 02:00:19;;;;;;;1.13;0.88;;;5.60;99.90;;;;;;5451814;26;20239;-74
2024/04/17 02:02:47;;;;;;;0.90;0.80;;;5.60;99.90;;;;;;5452709;26;20234;-74
2024/04/17 02:05:13;;;;;;;1.55;0.80;;;5.60;99.90;;;;;;5452202;26;20288;-74
2024/04/17 02:07:42;;;;;;;1.10;0.90;;;5.50;99.90;;;;;;5452391;26;20241;-74
2024/04/17 02:10:07;;;;;;;0.80;0.60;;;5.50;99.90;;;;;;5452063;26;20534;-74
2024/04/17 02:12:36;;;;;;;1.03;0.93;;;5.50;99.90;;;;;;5452361;26;20731;-74
2024/04/17 02:15:02;;;;;;;0.98;0.70;;;5.50;99.90;;;;;;5452185;26;20486;-74
2024/04/17 02:17:33;;;;;;;1.20;1.10;;;5.50;99.90;;;;;;5452209;26;20822;-74
2024/04/17 02:19:58;;;;;;;1.05;0.80;;;5.50;99.90;;;;;;5452711;26;20271;-75
2024/04/17 02:22:27;;;;;;;1.20;0.93;;;5.60;99.90;;;;;;5452852;26;20249;-74
2024/04/17 02:24:52;;;;;;;1.02;0.90;;;5.60;99.90;;;;;;5453034;26;20233;-74
2024/04/17 02:27:21;;;;;;;1.20;0.97;;;5.60;99.90;;;;;;5452743;26;20242;-75
2024/04/17 02:29:47;;;;;;;1.15;0.80;;;5.60;99.90;;;;;;5452048;26;20237;-74
2024/04/17 02:32:16;;;;;;;0.90;0.80;;;5.60;99.90;;;;;;5452402;26;20264;-74
2024/04/17 02:34:44;;;;;;;1.08;0.98;;;5.60;99.90;;;;;;5452336;26;20803;-75
2024/04/17 02:37:13;;;;;;;1.60;1.27;;;5.60;99.90;;;;;;5452098;26;20376;-75
2024/04/17 02:39:38;;;;;;;1.05;0.95;;;5.60;99.90;;;;;;5451860;26;20254;-74
2024/04/17 02:42:07;;;;;;;1.23;1.07;;;5.60;99.90;;;;;;5451980;26;20234;-74
2024/04/17 02:44:33;;;;;;;1.30;1.20;;;5.60;99.90;;;;;;5451868;26;20240;-74
2024/04/17 02:47:01;;;;;;;1.73;1.00;;;5.60;99.90;;;;;;5451726;26;20334;-74
2024/04/17 02:49:27;;;;;;;1.25;1.00;;;5.60;99.90;;;;;;5451394;26;20816;-74
2024/04/17 02:51:58;;;;;;;0.90;0.80;;;5.60;99.90;;;;;;5451895;26;20271;-74
2024/04/17 02:54:24;;;;;;;1.30;1.20;;;5.50;99.90;;;;;;5451938;26;20232;-74
2024/04/17 02:56:52;;;;;;;1.30;1.20;;;5.60;99.90;;;;;;5451931;26;20237;-74
2024/04/17 02:59:18;;;;;;;2.65;1.45;;;5.50;99.90;;;;;;5451316;26;20474;-74
2024/04/17 03:01:47;;;;;;;1.30;1.20;;;5.60;99.90;;;;;;5451678;26;20293;-74
2024/04/17 03:04:12;;;;;;;1.27;1.10;;;5.60;99.90;;;;;;5451515;26;20237;-74
2024/04/17 03:06:41;;;;;;;1.27;1.00;;;5.60;99.90;;;;;;5446016;26;20234;-74
2024/04/17 03:09:09;;;;;;;1.65;1.02;;;5.60;99.90;;;;;;5436598;26;20241;-74
2024/04/17 03:11:37;;;;;;;1.35;1.20;;;5.60;99.90;;;;;;5440826;26;20587;-75
2024/04/17 03:14:03;;;;;;;0.90;0.80;;;5.50;99.90;;;;;;5438363;26;20236;-75
2024/04/17 03:16:31;;;;;;;0.90;0.80;;;5.50;99.90;;;;;;5439046;26;20293;-74
2024/04/17 03:18:57;;;;;;;1.85;0.70;;;5.50;99.90;;;;;;5435191;26;20245;-74
2024/04/17 03:21:25;;;;;;;1.00;0.90;;;5.40;99.90;;;;;;5440576;26;20381;-74
2024/04/17 03:23:51;;;;;;;0.80;0.70;;;5.30;99.90;;;;;;5436610;26;20349;-74
2024/04/17 03:26:22;;;;;;;0.97;0.80;;;5.30;99.90;;;;;;5440098;26;20253;-74
2024/04/17 03:28:48;;;;;;;1.02;0.85;;;5.30;99.90;;;;;;5431935;26;20283;-74
2024/04/17 03:31:17;;;;;;;1.00;0.90;;;5.20;99.90;;;;;;5438870;26;20609;-74
2024/04/17 03:33:45;;;;;;;1.00;0.90;;;5.20;99.90;;;;;;5438809;26;20246;-74
2024/04/17 03:36:14;;;;;;;0.80;0.70;;;5.20;99.90;;;;;;5438697;26;20238;-74
2024/04/17 03:38:42;;;;;;;2.13;0.90;;;5.20;99.90;;;;;;5438617;26;20342;-74
2024/04/17 03:41:10;;;;;;;0.80;0.70;;;5.20;99.90;;;;;;5437067;26;20307;-74
2024/04/17 03:43:41;;;;;;;1.10;0.93;;;5.20;99.90;;;;;;5439938;26;20611;-74
2024/04/17 03:46:10;;;;;;;0.90;0.70;;;5.10;99.90;;;;;;5437405;26;20284;-74
2024/04/17 03:48:35;;;;;;;2.08;1.17;;;5.10;99.90;;;;;;5439871;26;20655;-74
2024/04/17 03:51:04;;;;;;;1.47;0.90;;;5.10;99.90;;;;;;5435626;26;20276;-75
2024/04/17 03:53:30;;;;;;;1.20;1.10;;;5.20;99.90;;;;;;5439183;26;20996;-73
2024/04/17 03:55:58;;;;;;;1.00;0.90;;;5.20;99.90;;;;;;5435117;26;20253;-73
2024/04/17 03:58:24;;;;;;;1.00;0.90;;;5.20;99.90;;;;;;5440019;26;20308;-73
2024/04/17 04:00:55;;;;;;;1.10;0.90;;;5.30;99.90;;;;;;5431610;26;20675;-73
2024/04/17 04:03:20;;;;;;;1.02;0.93;;;5.30;99.90;;;;;;5446644;26;20232;-73
2024/04/17 04:05:49;;;;;;;2.03;1.20;;;5.30;99.90;;;;;;5451162;26;20237;-73
2024/04/17 04:08:14;;;;;;;1.10;0.77;;;5.30;99.90;;;;;;5450524;26;20291;-73
2024/04/17 04:10:43;;;;;;;0.90;0.80;;;5.30;99.90;;;;;;5450342;26;20571;-73
2024/04/17 04:13:08;;;;;;;2.67;1.17;;;5.30;99.90;;;;;;5451456;26;20615;-73
2024/04/17 04:15:37;;;;;;;1.50;1.40;;;5.30;99.90;;;;;;5450966;26;20230;-73
2024/04/17 04:18:05;;;;;;;1.55;1.45;;;5.30;99.90;;;;;;5450315;26;20235;-73
2024/04/17 04:20:35;;;;;;;2.17;1.70;;;5.30;99.90;;;;;;5450372;26;20245;-73
2024/04/17 04:23:00;;;;;;;1.92;1.77;;;5.20;99.90;;;;;;5450463;26;20326;-73
2024/04/17 04:25:29;;;;;;;1.83;1.63;;;5.20;99.90;;;;;;5435646;26;20252;-73
2024/04/17 04:27:54;;;;;;;2.22;2.03;;;5.20;99.90;;;;;;5450343;26;20237;-73
2024/04/17 04:30:23;;;;;;;3.20;1.80;;;5.20;99.90;;;;;;5449931;26;20235;-73
2024/04/17 04:32:48;;;;;;;2.40;1.95;;;5.10;99.90;;;;;;5450541;26;20232;-72
2024/04/17 04:35:19;;;;;;;1.80;1.70;;;5.10;99.90;;;;;;5450257;26;20286;-73
2024/04/17 04:37:45;;;;;;;2.05;1.58;;;5.10;99.90;;;;;;5451039;26;20263;-74
2024/04/17 04:40:13;;;;;;;1.97;1.77;;;5.10;99.90;;;;;;5449696;26;20240;-73
2024/04/17 04:42:39;;;;;;;2.30;1.77;;;5.10;99.90;;;;;;5450206;26;20574;-73
2024/04/17 04:45:08;;;;;;;1.77;1.67;;;5.20;99.90;;;;;;5450091;26;20277;-73
2024/04/17 04:47:34;;;;;;;2.80;2.28;;;5.20;99.90;;;;;;5450038;26;20291;-73
2024/04/17 04:50:02;;;;;;;1.40;1.30;;;5.20;99.90;;;;;;5449699;26;20237;-73
2024/04/17 04:52:31;;;;;;;3.35;1.80;;;5.20;99.90;;;;;;5450101;26;20358;-72
2024/04/17 04:54:59;;;;;;;2.10;1.60;;;5.20;99.90;;;;;;5450043;26;20240;-72
2024/04/17 04:57:27;;;;;;;1.70;1.60;;;5.10;99.90;;;;;;5450027;26;20244;-73
2024/04/17 04:59:53;;;;;;;1.70;1.33;;;5.10;99.90;;;;;;5449712;26;20391;-73
2024/04/17 05:02:21;;;;;;;3.20;2.43;;;5.00;99.90;;;;;;5449667;26;20338;-73
2024/04/17 05:04:47;;;;;;;1.75;1.65;;;5.00;99.90;;;;;;5449733;26;20232;-73
2024/04/17 05:07:15;;;;;;;1.80;1.60;;;5.00;99.90;;;;;;5449539;26;20270;-72
2024/04/17 05:09:44;;;;;;;1.40;1.25;;;5.00;99.90;;;;;;5449187;26;20763;-73
2024/04/17 05:12:12;;;;;;;2.25;2.03;;;5.00;99.90;;;;;;5449588;26;20339;-73
2024/04/17 05:14:38;;;;;;;1.95;1.70;;;5.00;99.90;;;;;;5434936;26;20351;-73
2024/04/17 05:17:06;;;;;;;2.17;1.50;;;5.00;99.90;;;;;;5449452;26;20244;-74
2024/04/17 05:19:32;;;;;;;2.13;1.92;;;5.00;99.90;;;;;;5448995;26;20233;-72
2024/04/17 05:22:00;;;;;;;1.97;1.77;;;5.00;99.90;;;;;;5449792;26;20280;-73
2024/04/17 05:24:26;;;;;;;2.05;1.75;;;5.00;99.90;;;;;;5449397;26;20600;-73
2024/04/17 05:26:57;;;;;;;2.50;1.93;;;5.00;99.90;;;;;;5440956;26;20238;-73
2024/04/17 05:29:25;;;;;;;2.50;1.70;;;5.10;99.90;;;;;;5448924;26;20237;-73
2024/04/17 05:31:51;;;;;;;2.20;1.50;;;5.10;99.90;;;;;;5453293;26;20228;-73
2024/04/17 05:34:21;;;;;;;1.60;1.33;;;5.20;99.90;;;;;;5452857;26;20297;-73
2024/04/17 05:36:46;;;;;;;1.73;1.58;;;5.20;99.90;;;;;;5453550;26;20227;-73
2024/04/17 05:39:15;;;;;;;1.90;1.70;;;5.20;99.90;;;;;;5452154;26;20238;-73
2024/04/17 05:41:40;;;;;;;2.38;2.10;;;5.30;99.90;;;;;;5452950;26;20228;-73
2024/04/17 05:44:11;;;;;;;2.40;2.10;;;5.30;99.90;;;;;;5439462;26;20277;-73
2024/04/17 05:46:37;;;;;;;2.28;1.80;;;5.30;99.90;;;;;;5452959;26;20233;-73
2024/04/17 05:49:06;;;;;;;2.50;1.80;;;5.30;99.90;;;;;;5452147;26;20302;-73
2024/04/17 05:51:32;;;;;;;2.30;2.10;;;5.40;99.90;;;;;;5452872;26;20597;-73
2024/04/17 05:54:00;;;;;;;2.50;1.90;;;5.40;99.90;;;;;;5452894;26;20232;-73
2024/04/17 05:56:26;;;;;;;2.47;2.00;;;5.30;99.90;;;;;;5452657;26;20237;-73
2024/04/17 05:58:54;;;;;;;2.47;2.27;;;5.30;99.90;;;;;;5452405;26;20240;-73
2024/04/17 06:01:22;;;;;;;2.10;1.90;;;5.30;99.90;;;;;;5452141;26;20241;-72
2024/04/17 06:03:51;;;;;;;3.72;2.65;;;5.30;99.90;;;;;;5453104;26;20233;-73
2024/04/17 06:06:16;;;;;;;3.97;2.78;;;5.40;99.90;;;;;;5452315;26;20233;-73
2024/04/17 06:08:45;;;;;;;2.37;2.00;;;5.30;99.90;;;;;;5451862;26;20238;-73
2024/04/17 06:11:10;;;;;;;3.00;2.35;;;5.40;99.90;;;;;;5443661;26;20243;-73
2024/04/17 06:13:39;;;;;;;4.93;3.40;;;5.40;99.90;;;;;;5441554;26;20230;-73
2024/04/17 06:16:06;;;;;;;3.53;2.60;;;5.50;99.90;;;;;;5447723;26;20288;-73
2024/04/17 06:18:36;;;;;;;1.95;1.75;;;5.60;99.90;;;;;;5451537;26;20688;-73
2024/04/17 06:21:02;;;;;;;4.05;2.90;;;5.60;99.90;;;;;;5447712;26;20263;-73
2024/04/17 06:23:31;;;;;;;2.80;2.50;;;5.70;99.90;;;;;;5451743;26;20576;-72
2024/04/17 06:25:56;;;;;;;2.88;2.67;;;5.80;99.90;;;;;;5448210;26;20466;-72
2024/04/17 06:28:25;;;;;;;3.40;3.10;;;5.90;99.90;;;;;;5450786;26;20242;-73
2024/04/17 06:30:51;;;;;;;4.00;3.63;;;6.00;99.90;;;;;;5448908;26;20323;-73
2024/04/17 06:33:19;;;;;;;3.60;3.00;;;6.10;99.90;;;;;;5451460;26;20230;-73
2024/04/17 06:35:47;;;;;;;3.90;2.63;;;6.10;99.90;;;;;;5449755;26;20475;-73
2024/04/17 06:38:16;;;;;;;5.97;3.15;;;6.20;99.90;;;;;;5450516;26;20237;-73
2024/04/17 06:40:42;;;;;;;3.72;3.33;;;6.30;99.90;;;;;;5448651;26;20233;-73
2024/04/17 06:43:10;;;;;;;4.47;3.47;;;6.30;99.90;;;;;;5451535;26;20237;-73
2024/04/17 06:45:36;;;;;;;3.72;2.92;;;6.40;99.90;;;;;;5450317;26;20241;-73
2024/04/17 06:48:07;;;;;;;4.28;3.20;;;6.40;99.90;;;;;;5451386;26;20271;-73
2024/04/17 06:50:33;;;;;;;2.55;2.28;;;6.30;99.90;;;;;;5450209;26;20634;-73
2024/04/17 06:53:04;;;;;;;4.97;3.50;;;6.20;99.90;;;;;;5451249;26;20242;-73
2024/04/17 06:55:30;;;;;;;3.58;3.20;;;6.20;99.90;;;;;;5450714;26;20237;-73
2024/04/17 06:57:58;;;;;;;2.50;2.10;;;6.20;99.90;;;;;;5439295;26;20350;-73
2024/04/17 07:00:31;;;;;;;3.75;3.22;;;6.10;99.90;;;;;;5444457;26;20306;-73
2024/04/17 07:02:59;;;;;;;3.30;2.30;;;6.10;99.90;;;;;;5441294;26;20280;-73
2024/04/17 07:05:25;;;;;;;3.17;2.65;;;6.10;99.90;;;;;;5448511;26;20268;-73
2024/04/17 07:07:53;;;;;;;3.38;2.35;;;6.20;99.90;;;;;;5439267;26;20600;-73
2024/04/17 07:10:22;;;;;;;3.10;2.70;;;6.20;99.90;;;;;;5449902;26;20611;-73
2024/04/17 07:12:50;;;;;;;2.50;2.30;;;6.30;99.90;;;;;;5438882;26;20284;-73
2024/04/17 07:15:16;;;;;;;3.85;2.53;;;6.40;99.90;;;;;;5451108;26;20237;-73
2024/04/17 07:17:45;;;;;;;2.20;1.67;;;6.40;99.90;;;;;;5437204;26;20809;-73
2024/04/17 07:20:10;;;;;;;4.10;2.50;;;6.40;99.90;;;;;;5450299;26;20282;-73
2024/04/17 07:22:39;;;;;;;3.10;2.60;;;6.40;99.90;;;;;;5438354;26;20237;-73
2024/04/17 07:25:05;;;;;;;2.45;2.20;;;6.50;99.90;;;;;;5439490;26;20299;-73
2024/04/17 07:27:36;;;;;;;2.47;2.28;;;6.50;99.90;;;;;;5449063;26;20398;-73
2024/04/17 07:30:02;;;;;;;2.15;1.77;;;6.50;99.90;;;;;;5440255;26;20277;-73
2024/04/17 07:32:30;;;;;;;2.33;2.13;;;6.40;99.90;;;;;;5447684;26;20296;-73
2024/04/17 07:34:56;;;;;;;4.75;1.95;;;6.40;99.90;;;;;;5450710;26;20229;-72
2024/04/17 07:37:24;;;;;;;2.80;2.00;;;6.40;99.90;;;;;;5450642;26;20749;-73
2024/04/17 07:39:50;;;;;;;2.35;1.80;;;6.30;99.90;;;;;;5444061;26;20231;-73
2024/04/17 07:42:18;;;;;;;1.90;1.63;;;6.20;99.90;;;;;;5445545;26;20775;-73
2024/04/17 07:44:49;;;;;;;1.95;1.70;;;6.10;99.90;;;;;;5446268;26;20275;-73
2024/04/17 07:47:17;;;;;;;2.17;1.85;;;6.00;99.90;;;;;;5434514;26;20301;-73
2024/04/17 07:49:43;;;;;;;2.65;1.90;;;6.00;99.90;;;;;;5448839;26;20546;-73
2024/04/17 07:52:11;;;;;;;3.00;1.70;;;5.90;99.90;;;;;;5450961;26;20273;-71
2024/04/17 07:54:37;;;;;;;1.52;1.30;;;5.80;99.90;;;;;;5448279;26;20527;-71
2024/04/17 07:57:06;;;;;;;1.20;1.10;;;5.80;99.90;;;;;;5441418;26;20241;-70
2024/04/17 07:59:32;;;;;;;2.45;1.33;;;5.80;99.90;;;;;;5449682;26;20241;-71
2024/04/17 08:02:03;;;;;;;1.53;1.43;;;5.80;99.90;;;;;;5435992;26;20683;-74
2024/04/17 08:04:29;;;;;;;1.95;1.33;;;5.70;99.90;;;;;;5450295;26;20271;-71
2024/04/17 08:06:57;;;;;;;1.50;1.40;;;5.70;99.90;;;;;;5441033;26;20730;-71
2024/04/17 08:09:24;;;;;;;1.80;1.25;;;5.80;99.90;;;;;;5449419;26;20466;-70
2024/04/17 08:11:52;;;;;;;1.70;1.27;;;5.70;99.90;;;;;;5441082;26;20239;-71
2024/04/17 08:14:18;;;;;;;2.17;1.98;;;5.70;99.90;;;;;;5450185;26;20316;-71
2024/04/17 08:16:48;;;;;;;2.57;2.10;;;5.70;99.90;;;;;;5441450;26;20775;-71
2024/04/17 08:19:16;;;;;;;2.00;1.80;;;5.70;99.90;;;;;;5449617;26;20650;-71
2024/04/17 08:21:44;;;;;;;3.25;2.53;;;5.80;99.90;;;;;;5440545;26;20287;-71
2024/04/17 08:24:10;;;;;;;2.67;2.47;;;5.90;99.90;;;;;;5442866;26;20236;-71
2024/04/17 08:26:38;;;;;;;2.90;2.30;;;6.00;99.90;;;;;;5435645;26;20231;-71
2024/04/17 08:29:04;;;;;;;4.57;2.30;;;6.10;99.90;;;;;;5440665;26;20244;-71
2024/04/17 08:31:33;;;;;;;3.63;3.03;;;6.20;99.90;;;;;;5432708;26;20310;-71
2024/04/17 08:33:58;;;;;;;3.08;2.40;;;6.30;99.90;;;;;;5440246;26;20734;-72
2024/04/17 08:36:29;;;;;;;3.07;2.77;;;6.40;99.90;;;;;;5439010;26;20268;-72
2024/04/17 08:38:56;;;;;;;6.25;3.25;;;6.60;99.90;;;;;;5428449;26;20245;-72
2024/04/17 08:41:29;;;;;;;4.68;2.83;;;6.70;99.90;;;;;;5430018;26;20570;-72
2024/04/17 08:43:59;;;;;;;4.70;3.13;;;6.90;99.90;;;;;;5449762;26;20234;-72
2024/04/17 08:46:28;;;;;;;4.90;3.17;;;7.10;99.90;;;;;;5443169;26;20540;-72
2024/04/17 08:48:55;;;;;;;5.85;3.58;;;7.50;99.90;;;;;;5448775;26;20770;-71
2024/04/17 08:51:26;;;;;;;5.05;2.85;;;7.90;99.90;;;;;;5443087;26;20733;-72
2024/04/17 08:53:57;;;;;;;3.92;3.50;;;8.30;99.90;;;;;;5449207;26;20271;-72
2024/04/17 08:56:27;;;;;;;3.83;3.00;;;8.70;99.90;;;;;;5444783;26;20298;-72
2024/04/17 08:58:54;;;;;;;3.13;2.88;;;9.10;99.90;;;;;;5449039;26;21179;-72
2024/04/17 09:01:23;;;;;;;4.40;3.50;;;9.20;99.90;;;;;;5450522;26;20237;-72
2024/04/17 09:03:49;;;;;;;2.47;2.28;;;9.20;99.90;;;;;;5453115;26;20723;-72
2024/04/17 09:06:17;;;;;;;4.00;2.70;;;9.00;99.90;;;;;;5449365;26;20238;-71
2024/04/17 09:08:44;;;;;;;2.83;2.17;;;9.00;99.90;;;;;;5452076;26;20734;-72
2024/04/17 09:11:14;;;;;;;2.90;2.70;;;8.90;99.90;;;;;;5449302;26;20245;-71
2024/04/17 09:13:41;;;;;;;2.05;1.92;;;8.60;99.90;;;;;;5438580;26;20249;-72
2024/04/17 09:16:09;;;;;;;2.10;1.90;;;8.40;99.90;;;;;;5436968;26;20330;-72
2024/04/17 09:18:37;;;;;;;2.85;2.50;;;8.10;99.90;;;;;;5452293;26;20303;-72
2024/04/17 09:21:06;;;;;;;3.53;2.53;;;7.90;99.90;;;;;;5452557;26;20242;-72
2024/04/17 09:23:32;;;;;;;3.35;2.70;;;7.60;99.90;;;;;;5452584;26;20234;-72
2024/04/17 09:26:00;;;;;;;2.53;2.33;;;7.30;99.90;;;;;;5452711;26;20280;-71
2024/04/17 09:28:28;;;;;;;3.10;2.33;;;7.30;99.90;;;;;;5452110;26;20470;-72
2024/04/17 09:30:57;;;;;;;3.08;2.63;;;7.20;99.90;;;;;;5452296;26;20294;-72
2024/04/17 09:33:23;;;;;;;3.15;2.85;;;7.20;99.90;;;;;;5452623;26;20301;-72
2024/04/17 09:35:51;;;;;;;3.20;3.00;;;7.30;99.90;;;;;;5452566;26;20338;-72
2024/04/17 09:38:17;;;;;;;3.08;2.33;;;7.30;99.90;;;;;;5452263;26;20249;-72
2024/04/17 09:40:46;;;;;;;3.40;3.10;;;7.30;99.90;;;;;;5452108;26;20238;-72
2024/04/17 09:43:22;;;;;;;2.50;2.30;;;7.30;99.90;;;;;;5452706;26;20302;-71
2024/04/17 09:46:01;;;;;;;2.95;2.60;;;7.20;99.90;;;;;;5452638;26;20276;-71
2024/04/17 09:48:28;;;;;;;2.83;2.63;;;7.10;99.90;;;;;;5452323;26;20234;-71
2024/04/17 09:51:02;;;;;;;4.28;3.00;;;7.20;99.90;;;;;;5452143;26;20330;-71
2024/04/17 09:53:32;;;;;;;4.88;3.22;;;7.20;99.90;;;;;;5452223;26;20234;-71
2024/04/17 09:56:02;;;;;;;5.45;3.55;;;7.20;99.90;;;;;;5452544;26;20746;-71
2024/04/17 09:58:32;;;;;;;4.80;3.15;;;7.20;99.90;;;;;;5451957;26;20280;-71
2024/04/17 10:01:05;;;;;;;3.42;2.72;;;7.30;99.90;;;;;;5452105;26;20326;-71
2024/04/17 10:03:32;;;;;;;3.65;3.35;;;7.30;99.90;;;;;;5452220;26;20604;-71
2024/04/17 10:06:01;;;;;;;3.30;3.05;;;7.30;99.90;;;;;;5452289;26;20238;-72
2024/04/17 10:08:28;;;;;;;3.20;2.90;;;7.30;99.90;;;;;;5451800;26;20571;-72
2024/04/17 10:10:57;;;;;;;4.70;3.58;;;7.40;99.90;;;;;;5451680;26;20573;-72
2024/04/17 10:13:23;;;;;;;3.95;3.17;;;7.60;99.90;;;;;;5451218;26;20237;-71
2024/04/17 10:15:52;;;;;;;4.97;3.33;;;7.70;99.90;;;;;;5452034;26;20284;-72
2024/04/17 10:18:21;;;;;;;4.55;4.03;;;7.90;99.90;;;;;;5451888;26;20230;-72
2024/04/17 10:20:50;;;;;;;4.38;3.63;;;7.90;99.90;;;;;;5455743;26;20238;-72
2024/04/17 10:23:17;;;;;;;5.80;3.20;;;7.80;99.90;;;;;;5452148;26;20764;-72
2024/04/17 10:25:50;;;;;;;3.70;3.40;;;7.70;99.90;;;;;;5452076;26;20774;-72
2024/04/17 10:28:18;;;;;;;3.55;2.90;;;7.50;99.90;;;;;;5451745;26;20234;-72
2024/04/17 10:30:48;;;;;;;3.10;2.80;;;7.40;99.90;;;;;;5452096;26;20745;-72
2024/04/17 10:33:27;;;;;;;3.05;2.83;;;7.50;99.90;;;;;;5451832;26;20272;-72
2024/04/17 10:35:56;;;;;;;4.90;2.90;;;7.70;99.90;;;;;;5451902;26;20230;-72
2024/04/17 10:38:25;;;;;;;5.20;3.42;;;8.00;99.90;;;;;;5451724;26;20267;-72
2024/04/17 10:40:56;;;;;;;4.07;2.97;;;8.40;99.90;;;;;;5451401;26;20234;-71
2024/04/17 10:43:22;;;;;;;4.05;3.25;;;8.80;99.90;;;;;;5451621;26;20624;-72
2024/04/17 10:45:58;;;;;;;3.97;3.50;;;9.10;99.90;;;;;;5451458;26;20234;-72
2024/04/17 10:48:26;;;;;;;4.10;3.70;;;9.30;99.90;;;;;;5451334;26;20229;-72
2024/04/17 10:50:55;;;;;;;4.45;3.95;;;9.70;99.90;;;;;;5450996;26;20234;-72
2024/04/17 10:53:21;;;;;;;5.53;4.50;;;10.20;99.90;;;;;;5451608;26;20611;-72
2024/04/17 10:55:52;;;;;;;6.75;3.92;;;10.70;99.90;;;;;;5451296;26;20234;-72
2024/04/17 10:58:18;;;;;;;6.05;4.10;;;10.80;99.90;;;;;;5453071;26;20642;-72
2024/04/17 11:00:47;;;;;;;3.83;3.50;;;10.70;99.90;;;;;;5452365;26;20331;-72
2024/04/17 11:03:13;;;;;;;3.78;3.38;;;10.40;99.90;;;;;;5451397;26;20230;-71
2024/04/17 11:05:44;;;;;;;2.97;2.73;;;10.40;99.90;;;;;;5451366;26;20272;-71
2024/04/17 11:08:10;;;;;;;4.70;3.25;;;10.70;99.90;;;;;;5451234;26;20574;-71
2024/04/17 11:10:39;;;;;;;7.53;4.07;;;10.80;99.90;;;;;;5451498;26;20299;-72
2024/04/17 11:13:14;;;;;;;3.38;3.03;;;10.70;99.90;;;;;;5451298;26;20764;-72
2024/04/17 11:15:43;;;;;;;3.83;3.05;;;10.40;99.90;;;;;;5436914;26;20277;-71
2024/04/17 11:18:09;;;;;;;2.80;2.55;;;10.40;99.90;;;;;;5451337;26;20263;-72
2024/04/17 11:20:40;;;;;;;4.88;3.20;;;11.10;99.90;;;;;;5450432;26;20242;-72
2024/04/17 11:23:09;;;;;;;3.72;2.88;;;12.40;99.90;;;;;;5450936;26;20264;-72
2024/04/17 11:25:38;;;;;;;4.30;2.70;;;13.10;99.90;;;;;;5443556;26;20242;-71
2024/04/17 11:28:04;;;;;;;4.13;2.63;;;13.30;99.90;;;;;;5429596;26;20476;-72
2024/04/17 11:30:33;;;;;;;2.97;2.50;;;13.00;99.90;;;;;;5436441;26;20469;-72
2024/04/17 11:33:02;;;;;;;3.10;2.80;;;12.70;99.90;;;;;;5437687;26;20606;-72
2024/04/17 11:35:30;;;;;;;3.30;2.73;;;12.30;99.90;;;;;;5439771;26;20881;-72
2024/04/17 11:37:57;;;;;;;7.03;2.37;;;11.80;99.90;;;;;;5432674;26;20480;-72
2024/04/17 11:40:28;;;;;;;3.20;2.23;;;11.40;99.90;;;;;;5430893;26;20480;-72
2024/04/17 11:42:54;;;;;;;3.55;2.45;;;11.10;99.90;;;;;;5439193;26;21140;-71
2024/04/17 11:45:23;;;;;;;5.27;2.80;;;11.10;99.90;;;;;;5439638;26;20314;-72
2024/04/17 11:47:48;;;;;;;2.83;2.27;;;11.40;99.90;;;;;;5430464;26;20235;-72
2024/04/17 11:50:17;;;;;;;4.53;3.23;;;11.70;99.90;;;;;;5432994;26;20473;-72
2024/04/17 11:52:43;;;;;;;3.63;2.58;;;12.00;99.90;;;;;;5439398;26;20575;-72
2024/04/17 11:55:11;;;;;;;2.80;2.53;;;12.00;99.90;;;;;;5439385;26;20238;-72
2024/04/17 11:57:39;;;;;;;3.47;2.90;;;12.00;99.90;;;;;;5438646;26;20234;-72
2024/04/17 12:00:09;;;;;;;3.00;2.70;;;11.70;99.90;;;;;;5432870;26;20748;-72
2024/04/17 12:02:35;;;;;;;3.08;2.38;;;11.50;99.90;;;;;;5438840;26;20229;-72
2024/04/17 12:05:03;;;;;;;4.07;2.90;;;11.10;99.90;;;;;;5440067;26;20238;-72
2024/04/17 12:07:30;;;;;;;3.00;2.50;;;10.90;99.90;;;;;;5439975;26;20234;-72
2024/04/17 12:09:58;;;;;;;3.17;2.42;;;10.90;99.90;;;;;;5428520;26;20277;-72
2024/04/17 12:12:24;;;;;;;2.90;2.63;;;11.00;99.90;;;;;;5436710;26;20239;-72
2024/04/17 12:14:58;;;;;;;2.23;2.03;;;11.00;99.90;;;;;;5440246;26;20521;-72
2024/04/17 12:17:23;;;;;;;2.40;2.20;;;11.10;99.90;;;;;;5439070;26;20741;-72
2024/04/17 12:19:52;;;;;;;2.40;2.00;;;11.50;99.90;;;;;;5434504;26;20506;-72
2024/04/17 12:22:18;;;;;;;2.40;2.20;;;12.00;99.90;;;;;;5440552;26;20825;-72
2024/04/17 12:27:31;;;;;;;2.90;2.20;;;13.30;99.90;;;;;;5443108;26;20501;-71
2024/04/17 12:30:02;;;;;;;3.90;2.30;;;13.80;99.90;;;;;;5434340;26;20601;-71
2024/04/17 12:32:30;;;;;;;2.20;2.00;;;14.10;99.90;;;;;;5437974;26;20914;-71
2024/04/17 12:34:59;;;;;;;2.50;2.30;;;14.20;99.90;;;;;;5440465;26;20519;-71
2024/04/17 12:37:27;;;;;;;2.77;2.00;;;14.10;99.90;;;;;;5443763;26;20990;-71
2024/04/17 12:39:55;;;;;;;2.03;1.83;;;13.80;99.90;;;;;;5439403;26;20828;-71
2024/04/17 12:42:24;;;;;;;4.47;2.23;;;13.00;99.90;;;;;;5440205;26;20468;-71
2024/04/17 12:44:52;;;;;;;3.50;1.90;;;12.10;99.90;;;;;;5443934;26;20459;-71
2024/04/17 12:47:23;;;;;;;2.60;1.97;;;11.30;99.90;;;;;;5444211;26;20523;-71
2024/04/17 12:49:49;;;;;;;2.92;1.90;;;10.70;99.90;;;;;;5440518;26;20497;-72
2024/04/17 12:52:17;;;;;;;3.10;2.17;;;10.10;99.90;;;;;;5438474;26;20235;-72
2024/04/17 12:54:43;;;;;;;3.40;2.42;;;9.60;99.90;;;;;;5444139;26;20226;-72
2024/04/17 12:57:11;;;;;;;2.10;1.90;;;9.30;99.90;;;;;;5444217;26;20761;-72
2024/04/17 12:59:37;;;;;;;2.28;1.88;;;8.90;99.90;;;;;;5443803;26;20226;-72
2024/04/17 13:02:06;;;;;;;2.00;1.63;;;8.40;99.90;;;;;;5438270;26;20296;-71